Valley Peak, Santa Cruz Island Reserve, California Weather observations

Data are for 10 minute period ending at time listed.
 Day   Time   Solar   Ave.   Ave.  Ave.  Vector  Max.   Baro.   Total    
  of    of     Rad.   Air    Rel.  Wind   Wind   Wind  Press.  Precip.   
Year   Day            Temp.  Hum.  Speed  Dir.   Gust                    
2017   (PST)  Kw/m2    F      %     mph   deg.    mph    mb.     in.     
-------------------------------------------------------------------------
 322    5:30   0.00   56.0    74    8.4   111    12.6   969.9    0.00 
 322    5:40   0.00   56.3    72    9.8   102    16.3   969.9    0.00 
 322    5:50   0.00   56.3    73    6.7   107    10.7   970.1    0.00 
 322    6:00   0.00   55.8    73    4.7   107     8.0   970.3    0.00 
 322    6:10   0.00   55.2    74    2.3   128     5.1   970.4    0.00 
 322    6:20   0.00   55.0    73    0.6   162     2.0   970.6    0.00 
 322    6:30   0.00   54.3    75    2.9    24     6.6   970.7    0.00 
 322    6:40   0.00   53.2    80    4.1    36     5.5   970.8    0.00 
 322    6:50   0.01   52.9    84    1.4    71     3.8   971.0    0.00 
 322    7:00   0.03   53.9    80    3.8    50     6.6   971.1    0.00 
 322    7:10   0.06   53.2    83    5.5    44     7.1   971.1    0.00 
 322    7:20   0.08   53.2    84    6.3    45     7.5   971.1    0.00 
 322    7:30   0.11   53.2    82    8.0    53     9.4   971.2    0.00 
 322    7:40   0.14   54.6    75    9.1    56    10.6   971.1    0.00 
 322    7:50   0.17   55.4    72    7.3    59     8.9   971.1    0.00 
 322    8:00   0.20   56.2    70    6.2    55     8.9   971.2    0.00 
 322    8:10   0.23   57.2    66    8.1    65    11.5   971.1    0.00 
 322    8:20   0.26   58.8    58    7.8    75    12.3   971.0    0.00 
 322    8:30   0.29   60.5    53    3.7   115     9.1   971.0    0.00 
 322    8:40   0.32   61.6    52    5.0   100    12.9   971.0    0.00 
 322    8:50   0.35   62.4    52    6.0    80    12.3   970.9    0.00 
 322    9:00   0.37   63.5    44    6.9    75    14.0   970.9    0.00 
 322    9:10   0.40   63.2    49    3.5    86     8.8   971.2    0.00 
 322    9:20   0.42   64.3    40    2.6    28     6.4   971.2    0.00 
 322    9:30   0.44   64.2    47    4.4    43     7.8   971.3    0.00 
 322    9:40   0.47   63.7    56    5.2    60    10.2   971.5    0.00 
 322    9:50   0.49   63.7    51   10.4    52    14.8   971.2    0.00 
 322   10:00   0.51   63.8    50   10.8    49    16.7   971.2    0.00 
 322   10:10   0.52   64.2    52    9.6    45    14.6   971.3    0.00 
 322   10:20   0.54   64.1    54    9.6    39    12.8   971.3    0.00 
 322   10:30   0.55   64.2    53    9.1    40    13.9   971.3    0.00 
 322   10:40   0.57   64.3    53    9.0    41    12.7   971.4    0.00 
 322   10:50   0.57   65.2    54    9.1    43    12.4   971.4    0.00 
 322   11:00   0.59   64.9    56    8.3    37    12.7   971.4    0.00 
 322   11:10   0.59   64.6    56    6.4    43     9.4   971.4    0.00 
 322   11:20   0.60   66.4    51    3.8    55     7.2   971.3    0.00 
 322   11:30   0.57   67.1    50    2.9    47     5.7   971.1    0.00 
 322   11:40   0.58   67.2    50    2.3    71     5.5   971.1    0.00 
 322   11:50   0.61   67.5    49    4.1    88     8.9   971.0    0.00 
 322   12:00   0.52   69.0    47    3.5    57     6.8   970.8    0.00 
 322   12:10   0.50   69.5    45    3.8    39     6.6   970.5    0.00 
 322   12:20   0.53   68.1    47    1.9    79     5.8   970.4    0.00 
 322   12:30   0.56   69.2    45    1.8   120     4.7   970.3    0.00 
 322   12:40   0.55   69.9    42    3.4   168     8.3   970.2    0.00 
 322   12:50   0.58   70.9    42    4.8   153     9.1   970.1    0.00 
 322   13:00   0.58   71.7    40    3.9   138     7.2   970.0    0.00 
 322   13:10   0.47   71.9    39    3.2   139     8.1   970.0    0.00 
 322   13:20   0.48   70.4    42    4.2   180     7.4   969.9    0.00 
 322   13:30   0.46   69.6    40    4.4   174     7.7   969.8    0.00 
 322   13:40   0.51   69.7    41    4.6   178     9.1   969.6    0.00 
 322   13:50   0.58   70.1    41    3.4   179     9.1   969.5    0.00 
 322   14:00   0.40   70.6    48    2.1    80     4.9   969.3    0.00 
 322   14:10   0.40   68.9    53    2.5    64     4.9   969.3    0.00 
 322   14:20   0.37   70.7    40    1.9   132     5.5   969.3    0.00 
 322   14:30   0.35   71.9    40    1.9   137     5.8   969.3    0.00 
 322   14:40   0.37   72.1    38    2.2   154     6.4   969.3    0.00 
 322   14:50   0.38   72.1    35    3.2   196     7.6   969.3    0.00 
 322   15:00   0.29   71.5    37    3.3   181     6.9   969.3    0.00 
 322   15:10   0.23   70.5    48    1.9   165     5.9   969.3    0.00 
 322   15:20   0.17   67.0    56    2.5    70     5.6   969.2    0.00 
 322   15:30   0.15   62.3    68    4.0    44     6.8   969.0    0.00 
 322   15:40   0.14   59.2    75    6.3    33     8.6   968.8    0.00 
 322   15:50   0.08   56.7    82    7.9    38    10.7   968.7    0.00 
 322   16:00   0.08   55.4    85    8.0    38    10.2   968.6    0.00 
 322   16:10   0.09   55.0    85    8.2    39     9.9   968.6    0.00 
 322   16:20   0.10   55.3    85    8.8    34    10.7   968.7    0.00 
 322   16:30   0.07   55.3    84   11.0    38    12.9   968.6    0.00 
 322   16:40   0.04   54.7    86   11.0    36    13.5   968.6    0.00 
 322   16:50   0.01   53.9    89    9.8    36    12.2   968.7    0.00 
 322   17:00   0.00   53.4    90    9.8    34    11.8   968.8    0.00 
 322   17:10   0.00   53.1    88   10.1    37    11.4   968.9    0.00 
 322   17:20   0.00   53.7    77   10.7    36    11.8   968.9    0.00 
 322   17:30   0.00   54.2    73    9.8    33    11.5   969.0    0.00 
 322   17:40   0.00   53.7    75    9.4    29    11.2   969.1    0.00 
 322   17:50   0.00   53.5    74    9.5    18    11.8   969.1    0.00 
 322   18:00   0.00   54.1    67   11.5     8    13.7   969.1    0.00 
 322   18:10   0.00   54.7    63   11.1     8    13.2   969.2    0.00 
 322   18:20   0.00   55.0    62    8.8     5    10.3   969.2    0.00 
 322   18:30   0.00   56.4    59    8.4   358    10.4   969.3    0.00 
 322   18:40   0.00   58.3    53   10.8     4    12.1   969.2    0.00 
 322   18:50   0.00   59.3    50   10.4    13    11.5   969.2    0.00 
 322   19:00   0.00   58.6    52   11.0    12    12.1   969.2    0.00 
 322   19:10   0.00   58.6    52   12.1    13    13.8   969.2    0.00 
 322   19:20   0.00   58.8    50   12.5     8    14.7   969.2    0.00 
 322   19:30   0.00   59.3    49   12.5     2    14.0   969.3    0.00 
 322   19:40   0.00   59.7    47   13.0     3    15.1   969.2    0.00 
 322   19:50   0.00   59.4    47   12.9     6    15.1   969.2    0.00 
 322   20:00   0.00   56.9    49   13.7    14    15.7   969.1    0.00 
 322   20:10   0.00   55.0    52   14.1    17    16.4   969.2    0.00 
 322   20:20   0.00   54.4    54   15.7    22    16.4   969.4    0.00 
 322   20:30   0.00   53.8    57   13.6    22    16.2   969.6    0.00 
 322   20:40   0.00   54.5    55   12.7    13    16.7   969.6    0.00 
 322   20:50   0.00   54.9    54   13.9    16    15.9   969.5    0.00 
 322   21:00   0.00   55.0    53   15.2    18    17.1   969.5    0.00 
 322   21:10   0.00   54.6    54   14.9    18    16.2   969.5    0.00 
 322   21:20   0.00   54.4    58   14.5    13    16.4   969.5    0.00 
 322   21:30   0.00   55.0    58   14.4    11    17.3   969.7    0.00 
 322   21:40   0.00   54.4    60   11.8    12    14.2   969.9    0.00 
 322   21:50   0.00   55.7    57   14.0     2    16.7   969.9    0.00 
 322   22:00   0.00   57.3    50   14.0     2    17.6   969.8    0.00 
 322   22:10   0.00   58.2    47   13.5     2    16.3   969.8    0.00 
 322   22:20   0.00   58.4    45   14.1     3    16.7   969.7    0.00 
 322   22:30   0.00   58.5    43   14.5     7    17.0   969.7    0.00 
 322   22:40   0.00   58.7    43   14.0     5    16.4   969.8    0.00 
 322   22:50   0.00   59.0    40   14.2     5    17.6   969.7    0.00 
 322   23:00   0.00   59.8    37   14.8     6    17.5   969.6    0.00 
 322   23:10   0.00   59.5    38   15.3     1    17.5   969.4    0.00 
 322   23:20   0.00   60.2    35   15.4     1    17.4   969.3    0.00 
 322   23:30   0.00   60.5    34   13.9     4    17.0   969.2    0.00 
 322   23:40   0.00   60.8    33   15.1   359    17.2   969.2    0.00 
 322   23:50   0.00   61.0    33   14.4     3    17.5   969.3    0.00 
 323    0:00   0.00   61.2    32   13.3     7    16.2   969.2    0.00 
 323    0:10   0.00   61.2    32   13.7    12    16.8   969.2    0.00 
 323    0:20   0.00   61.4    32   14.1    15    17.2   969.1    0.00 
 323    0:30   0.00   61.5    32   13.7    14    16.0   969.2    0.00 
 323    0:40   0.00   61.5    32   12.4    14    14.8   969.2    0.00 
 323    0:50   0.00   61.6    32   12.3    13    13.6   969.2    0.00 
 323    1:00   0.00   61.6    32   12.6    11    14.2   969.0    0.00 
 323    1:10   0.00   61.5    31   12.8    14    15.2   968.9    0.00 
 323    1:20   0.00   61.1    32   13.4    16    14.4   968.7    0.00 
 323    1:30   0.00   60.0    34   13.0    13    14.2   968.6    0.00 
 323    1:40   0.00   60.5    34   12.6     9    14.9   968.7    0.00 
 323    1:50   0.00   60.8    33   12.7     9    14.9   968.8    0.00 
 323    2:00   0.00   61.0    33   13.3    10    15.9   968.7    0.00 
 323    2:10   0.00   60.5    33   13.9    12    16.5   968.7    0.00 
 323    2:20   0.00   60.0    33   14.8    13    16.9   968.6    0.00 
 323    2:30   0.00   59.5    36   14.4    12    15.7   968.5    0.00 
 323    2:40   0.00   59.9    34   13.2     8    15.9   968.6    0.00 
 323    2:50   0.00   59.9    35   13.8    10    16.1   968.5    0.00 
 323    3:00   0.00   58.0    41   13.5    12    15.2   968.4    0.00 
 323    3:10   0.00   57.3    43   13.6    13    15.9   968.3    0.00 
 323    3:20   0.00   56.9    46   13.7    12    16.5   968.2    0.00 
 323    3:30   0.00   58.0    42   13.4     2    16.6   968.0    0.00 
 323    3:40   0.00   58.9    37   14.9   354    17.2   968.0    0.00 
 323    3:50   0.00   59.8    35   15.2   345    17.5   968.1    0.00 
 323    4:00   0.00   60.1    34   13.2   338    16.0   968.1    0.00 
 323    4:10   0.00   60.6    32   12.1   336    13.9   968.1    0.00 
 323    4:20   0.00   60.9    32   11.2   338    12.9   968.1    0.00 
 323    4:30   0.00   60.8    31   11.1   340    13.2   968.1    0.00 
 323    4:40   0.00   60.3    33   11.8   348    12.9   968.0    0.00 
 323    4:50   0.00   59.8    34   11.6   350    13.6   968.1    0.00 
 323    5:00   0.00   59.6    36   11.5   351    14.2   968.2    0.00 
 323    5:10   0.00   59.6    36   12.3   354    15.8   968.3    0.00 
 323    5:20   0.00   59.4    36   11.5     1    14.7   968.2    0.00 

Return to Valley Peak, Santa Cruz Island Reserve graphs page.


Western Regional Climate Center,wrcc@dri.edu